Time;durP1;ratioP1;P1;durP2;ratioP2;P2;SDS_P1;SDS_P2;PMS_P1;PMS_P2;Temp;Humidity;BMP_temperature;BMP_pressure;BME280_temperature;BME280_humidity;BME280_pressure;Samples;Min_cycle;Max_cycle;Signal;HPM_P1;HPM_P2
2023/12/02 00:01:36;;;;;;;10.57;5.88;;;7.20;99.90;;;;;;5098228;28;20423;-71
2023/12/02 00:04:02;;;;;;;11.15;5.53;;;7.20;99.90;;;;;;5097963;28;20032;-71
2023/12/02 00:06:27;;;;;;;45.40;18.83;;;7.20;99.90;;;;;;5097999;28;20028;-72
2023/12/02 00:08:53;;;;;;;7.15;5.95;;;7.20;99.90;;;;;;5106668;28;20031;-71
2023/12/02 00:11:18;;;;;;;10.57;5.15;;;7.10;99.90;;;;;;5100507;28;20041;-71
2023/12/02 00:13:44;;;;;;;7.15;5.32;;;7.20;99.90;;;;;;5098224;28;20028;-72
2023/12/02 00:16:10;;;;;;;9.27;4.95;;;7.20;99.90;;;;;;5097739;28;20024;-71
2023/12/02 00:18:35;;;;;;;6.00;4.63;;;7.20;99.90;;;;;;5098058;28;20024;-72
2023/12/02 00:21:01;;;;;;;11.55;7.25;;;7.20;99.90;;;;;;5097823;28;20103;-72
2023/12/02 00:23:27;;;;;;;17.50;9.88;;;7.20;99.90;;;;;;5097861;28;20392;-72
2023/12/02 00:25:52;;;;;;;5.80;4.80;;;7.10;99.90;;;;;;5097687;28;20019;-72
2023/12/02 00:28:20;;;;;;;7.50;5.85;;;7.20;99.90;;;;;;5098002;28;20032;-72
2023/12/02 00:30:46;;;;;;;10.45;4.53;;;7.10;99.90;;;;;;5097648;28;20028;-72
2023/12/02 00:33:12;;;;;;;6.70;4.60;;;7.20;99.90;;;;;;5097879;28;20032;-72
2023/12/02 00:35:38;;;;;;;10.18;4.70;;;7.10;99.90;;;;;;5097160;28;20024;-72
2023/12/02 00:38:04;;;;;;;8.85;4.80;;;7.10;99.90;;;;;;5097552;28;20024;-72
2023/12/02 00:40:30;;;;;;;7.03;4.25;;;7.10;99.90;;;;;;5095984;28;20090;-72
2023/12/02 00:42:55;;;;;;;5.28;4.28;;;7.10;99.90;;;;;;5097600;28;20705;-72
2023/12/02 00:45:21;;;;;;;8.98;4.97;;;7.10;99.90;;;;;;5096131;28;20020;-72
2023/12/02 00:47:47;;;;;;;9.07;5.13;;;7.10;99.90;;;;;;5096207;28;20051;-72
2023/12/02 00:50:13;;;;;;;8.05;5.00;;;7.00;99.90;;;;;;5097084;28;20055;-72
2023/12/02 00:52:38;;;;;;;7.57;4.13;;;7.00;99.90;;;;;;5095927;28;20063;-72
2023/12/02 00:55:05;;;;;;;8.23;4.97;;;7.10;99.90;;;;;;5097310;28;20492;-72
2023/12/02 00:57:30;;;;;;;8.45;4.93;;;7.10;99.90;;;;;;5095826;28;20107;-72
2023/12/02 00:59:56;;;;;;;6.45;4.43;;;7.10;99.90;;;;;;5097023;28;20062;-72
2023/12/02 01:02:22;;;;;;;11.57;6.28;;;7.10;99.90;;;;;;5096349;28;20541;-72
2023/12/02 01:04:47;;;;;;;18.50;5.85;;;7.20;99.90;;;;;;5096633;28;20020;-72
2023/12/02 01:07:13;;;;;;;6.63;5.05;;;7.20;99.90;;;;;;5097335;28;20103;-72
2023/12/02 01:09:38;;;;;;;6.20;5.10;;;7.10;99.90;;;;;;5108469;28;20066;-72
2023/12/02 01:12:04;;;;;;;8.98;5.50;;;7.20;99.90;;;;;;5095559;28;20063;-72
2023/12/02 01:14:30;;;;;;;5.90;5.28;;;7.20;99.90;;;;;;5096876;28;20019;-72
2023/12/02 01:16:55;;;;;;;6.38;4.97;;;7.20;99.90;;;;;;5096844;28;20024;-72
2023/12/02 01:19:21;;;;;;;7.18;4.60;;;7.20;99.90;;;;;;5096331;28;20529;-72
2023/12/02 01:21:47;;;;;;;5.53;5.03;;;7.20;99.90;;;;;;5096860;28;20024;-72
2023/12/02 01:24:14;;;;;;;9.70;5.22;;;7.20;99.90;;;;;;5096628;28;20020;-72
2023/12/02 01:26:39;;;;;;;7.13;5.40;;;7.30;99.90;;;;;;5096844;28;20079;-72
2023/12/02 01:29:05;;;;;;;6.78;5.15;;;7.30;99.90;;;;;;5096713;28;20028;-72
2023/12/02 01:31:31;;;;;;;10.88;5.22;;;7.30;99.90;;;;;;5096720;28;20474;-72
2023/12/02 01:33:56;;;;;;;10.05;5.22;;;7.30;99.90;;;;;;5094911;28;20028;-72
2023/12/02 01:36:22;;;;;;;6.75;6.05;;;7.30;99.90;;;;;;5096363;28;20039;-72
2023/12/02 01:38:48;;;;;;;7.40;5.57;;;7.30;99.90;;;;;;5096401;28;20027;-72
2023/12/02 01:41:13;;;;;;;7.50;4.93;;;7.30;99.90;;;;;;5096416;28;20024;-72
2023/12/02 01:43:39;;;;;;;7.95;5.75;;;7.30;99.90;;;;;;5096287;28;20461;-72
2023/12/02 01:46:05;;;;;;;24.45;14.82;;;7.30;99.90;;;;;;5096420;28;20024;-72
2023/12/02 01:48:34;;;;;;;6.22;4.85;;;7.30;99.90;;;;;;5095114;28;20535;-72
2023/12/02 01:51:00;;;;;;;8.18;5.03;;;7.30;99.90;;;;;;5094953;28;20463;-72
2023/12/02 01:53:26;;;;;;;5.28;4.38;;;7.30;99.90;;;;;;5094509;28;20028;-72
2023/12/02 01:55:52;;;;;;;7.93;4.60;;;7.30;99.90;;;;;;5096140;28;20032;-72
2023/12/02 01:58:19;;;;;;;7.60;4.20;;;7.30;99.90;;;;;;5094345;28;20031;-71
2023/12/02 02:00:45;;;;;;;7.57;4.30;;;7.30;99.90;;;;;;5096142;28;20485;-72
2023/12/02 02:03:10;;;;;;;34.65;15.68;;;7.20;99.90;;;;;;5090351;28;20082;-72
2023/12/02 02:05:36;;;;;;;5.47;4.05;;;7.20;99.90;;;;;;5094594;28;20047;-72
2023/12/02 02:08:02;;;;;;;7.38;4.63;;;7.20;99.90;;;;;;5095693;28;20024;-72
2023/12/02 02:10:28;;;;;;;5.03;4.07;;;7.20;99.90;;;;;;5106042;28;20035;-72
2023/12/02 02:12:54;;;;;;;8.10;4.45;;;7.20;99.90;;;;;;5095394;28;20045;-72
2023/12/02 02:15:20;;;;;;;7.93;4.63;;;7.20;99.90;;;;;;5095918;28;20117;-72
2023/12/02 02:17:46;;;;;;;5.95;5.22;;;7.30;99.90;;;;;;5095844;28;20767;-72
2023/12/02 02:20:12;;;;;;;8.27;4.30;;;7.30;99.90;;;;;;5095929;28;20506;-72
2023/12/02 02:22:38;;;;;;;5.45;4.53;;;7.30;99.90;;;;;;5095503;28;20055;-72
2023/12/02 02:25:04;;;;;;;6.38;4.60;;;7.30;99.90;;;;;;5096047;28;20032;-72
2023/12/02 02:27:31;;;;;;;34.08;19.02;;;7.30;99.90;;;;;;5095750;28;20082;-72
2023/12/02 02:29:57;;;;;;;9.38;4.78;;;7.30;99.90;;;;;;5094485;28;20432;-72
2023/12/02 02:32:23;;;;;;;5.15;4.50;;;7.30;99.90;;;;;;5094161;28;20016;-71
2023/12/02 02:34:48;;;;;;;6.63;5.13;;;7.30;99.90;;;;;;5094214;28;20058;-72
2023/12/02 02:37:14;;;;;;;5.00;4.55;;;7.30;99.90;;;;;;5095210;28;20024;-72
2023/12/02 02:39:40;;;;;;;4.40;4.00;;;7.30;99.90;;;;;;5095640;28;20024;-72
2023/12/02 02:42:06;;;;;;;7.97;4.85;;;7.30;99.90;;;;;;5095618;28;20016;-71
2023/12/02 02:44:33;;;;;;;6.03;4.55;;;7.30;99.90;;;;;;5095706;28;20028;-72
2023/12/02 02:46:59;;;;;;;5.00;4.50;;;7.30;99.90;;;;;;5094385;28;20024;-72
2023/12/02 02:49:24;;;;;;;7.40;4.90;;;7.30;99.90;;;;;;5095371;28;20078;-72
2023/12/02 02:51:50;;;;;;;8.23;4.85;;;7.40;99.90;;;;;;5095277;28;20016;-72
2023/12/02 02:54:15;;;;;;;7.95;4.85;;;7.40;99.90;;;;;;5095743;28;20036;-71
2023/12/02 02:56:43;;;;;;;5.32;4.72;;;7.40;99.90;;;;;;5095267;28;20078;-71
2023/12/02 02:59:09;;;;;;;6.75;4.47;;;7.40;99.90;;;;;;5095390;28;20035;-72
2023/12/02 03:01:35;;;;;;;6.93;4.75;;;7.30;99.90;;;;;;5095596;28;20024;-71
2023/12/02 03:04:01;;;;;;;14.68;5.13;;;7.40;99.90;;;;;;5095151;28;20028;-72
2023/12/02 03:06:27;;;;;;;7.55;4.65;;;7.30;99.90;;;;;;5093949;28;20503;-72
2023/12/02 03:08:52;;;;;;;9.48;4.93;;;7.40;99.90;;;;;;5103637;28;20559;-72
2023/12/02 03:11:19;;;;;;;7.65;5.00;;;7.30;99.90;;;;;;5098030;28;20068;-72
2023/12/02 03:13:44;;;;;;;7.28;5.18;;;7.30;99.90;;;;;;5095537;28;20028;-72
2023/12/02 03:16:10;;;;;;;5.43;4.90;;;7.30;99.90;;;;;;5094981;28;20045;-72
2023/12/02 03:18:36;;;;;;;4.65;4.25;;;7.30;99.90;;;;;;5094947;28;20055;-71
2023/12/02 03:21:01;;;;;;;5.25;4.47;;;7.30;99.90;;;;;;5095083;28;20024;-72
2023/12/02 03:23:27;;;;;;;4.57;4.15;;;7.30;99.90;;;;;;5095166;28;20063;-71
2023/12/02 03:25:52;;;;;;;4.63;4.20;;;7.40;99.90;;;;;;5097635;28;20428;-72
2023/12/02 03:28:19;;;;;;;4.60;4.15;;;7.40;99.90;;;;;;5098912;28;20484;-72
2023/12/02 03:30:45;;;;;;;7.38;4.18;;;7.40;99.90;;;;;;5098750;28;20059;-72
2023/12/02 03:33:11;;;;;;;4.72;4.22;;;7.40;99.90;;;;;;5099053;28;20035;-71
2023/12/02 03:35:36;;;;;;;6.03;4.20;;;7.40;99.90;;;;;;5098582;28;20027;-71
2023/12/02 03:38:02;;;;;;;6.35;4.15;;;7.40;99.90;;;;;;5098822;28;20024;-71
2023/12/02 03:40:27;;;;;;;3.85;3.55;;;7.40;99.90;;;;;;5098588;28;20031;-72
2023/12/02 03:42:53;;;;;;;4.57;3.50;;;7.40;99.90;;;;;;5098834;28;20043;-72
2023/12/02 03:45:19;;;;;;;4.88;4.00;;;7.40;99.90;;;;;;5098672;28;20099;-72
2023/12/02 03:47:45;;;;;;;5.25;4.18;;;7.40;99.90;;;;;;5098635;28;20024;-72
2023/12/02 03:50:10;;;;;;;4.22;3.88;;;7.40;99.90;;;;;;5097040;28;20094;-72
2023/12/02 03:52:36;;;;;;;5.05;4.35;;;7.50;99.90;;;;;;5097160;28;20026;-72
2023/12/02 03:55:02;;;;;;;5.72;5.22;;;7.50;99.90;;;;;;5098259;28;20472;-73
2023/12/02 03:57:27;;;;;;;6.90;5.75;;;7.40;99.90;;;;;;5098896;28;20031;-72
2023/12/02 03:59:53;;;;;;;12.63;6.63;;;7.40;99.90;;;;;;5098367;28;20073;-72
2023/12/02 04:02:19;;;;;;;11.25;6.90;;;7.20;99.90;;;;;;5090346;28;20036;-73
2023/12/02 04:04:44;;;;;;;9.68;6.43;;;7.10;99.90;;;;;;5086927;28;20024;-73
2023/12/02 04:07:10;;;;;;;10.25;7.30;;;7.00;99.90;;;;;;5097626;28;20028;-72
2023/12/02 04:09:35;;;;;;;11.18;6.68;;;6.90;99.90;;;;;;5107232;28;20031;-72
2023/12/02 04:12:01;;;;;;;8.65;6.00;;;6.80;99.90;;;;;;5098162;28;20080;-71
2023/12/02 04:14:27;;;;;;;9.20;5.28;;;6.80;99.90;;;;;;5096648;28;20103;-73
2023/12/02 04:16:52;;;;;;;7.60;6.80;;;6.70;99.90;;;;;;5097963;28;20109;-75
2023/12/02 04:19:18;;;;;;;7.32;5.55;;;6.70;99.90;;;;;;5097588;28;20086;-74
2023/12/02 04:21:47;;;;;;;6.18;5.22;;;6.60;99.90;;;;;;5097970;28;20024;-73
2023/12/02 04:24:13;;;;;;;7.30;6.05;;;6.60;99.90;;;;;;5096616;28;20552;-73
2023/12/02 04:26:39;;;;;;;9.32;7.13;;;6.50;99.90;;;;;;5097905;28;20078;-72
2023/12/02 04:29:06;;;;;;;8.07;6.15;;;6.50;99.90;;;;;;5096636;28;20096;-72
2023/12/02 04:31:32;;;;;;;11.80;7.13;;;6.50;99.90;;;;;;5097949;28;20040;-72
2023/12/02 04:33:57;;;;;;;9.65;6.97;;;6.50;99.90;;;;;;5097479;28;20618;-72
2023/12/02 04:36:23;;;;;;;14.32;8.07;;;6.40;99.90;;;;;;5095972;28;20028;-72
2023/12/02 04:38:48;;;;;;;9.32;7.25;;;6.40;99.90;;;;;;5097610;28;20408;-72
2023/12/02 04:41:14;;;;;;;9.40;7.88;;;6.40;99.90;;;;;;5096281;28;20491;-72
2023/12/02 04:43:40;;;;;;;10.00;7.75;;;6.40;99.90;;;;;;5097515;28;20024;-72
2023/12/02 04:46:06;;;;;;;10.75;6.85;;;6.40;99.90;;;;;;5097414;28;20098;-73
2023/12/02 04:48:33;;;;;;;8.82;6.55;;;6.40;99.90;;;;;;5095987;28;20536;-72
2023/12/02 04:50:59;;;;;;;10.57;6.90;;;6.40;99.90;;;;;;5096010;28;20032;-72
2023/12/02 04:53:24;;;;;;;9.05;7.50;;;6.40;99.90;;;;;;5097283;28;20030;-73
2023/12/02 04:55:52;;;;;;;7.22;5.05;;;6.40;99.90;;;;;;5097518;28;20037;-73
2023/12/02 04:58:19;;;;;;;9.27;6.03;;;6.40;99.90;;;;;;5097479;28;20484;-72
2023/12/02 05:00:44;;;;;;;10.90;7.35;;;6.40;99.90;;;;;;5097273;28;20020;-73
2023/12/02 05:03:10;;;;;;;6.88;5.97;;;6.40;99.90;;;;;;5097100;28;20016;-73
2023/12/02 05:05:36;;;;;;;8.05;6.57;;;6.40;99.90;;;;;;5097098;28;20036;-72
2023/12/02 05:08:02;;;;;;;10.77;7.03;;;6.30;99.90;;;;;;5098409;28;20032;-73
2023/12/02 05:10:27;;;;;;;10.07;6.80;;;6.30;99.90;;;;;;5106888;28;20051;-72
2023/12/02 05:12:53;;;;;;;7.43;6.30;;;6.30;99.90;;;;;;5096939;28;20035;-74
2023/12/02 05:15:19;;;;;;;8.20;6.93;;;6.30;99.90;;;;;;5096985;28;20032;-73
2023/12/02 05:17:46;;;;;;;7.35;6.65;;;6.30;99.90;;;;;;5095356;28;20031;-73
2023/12/02 05:20:13;;;;;;;7.82;6.32;;;6.20;99.90;;;;;;5096661;28;20028;-74
2023/12/02 05:22:39;;;;;;;8.43;7.47;;;6.20;99.90;;;;;;5096831;28;20020;-74
2023/12/02 05:25:06;;;;;;;10.32;7.97;;;6.20;99.90;;;;;;5096895;28;20016;-72
2023/12/02 05:27:32;;;;;;;9.60;7.60;;;6.20;99.90;;;;;;5096801;28;20535;-73
2023/12/02 05:29:58;;;;;;;7.47;6.05;;;6.10;99.90;;;;;;5095514;28;20095;-72
2023/12/02 05:32:24;;;;;;;9.80;7.20;;;6.10;99.90;;;;;;5096666;28;20429;-72
2023/12/02 05:34:49;;;;;;;8.10;6.88;;;6.10;99.90;;;;;;5096493;28;20028;-73
2023/12/02 05:37:15;;;;;;;5.93;5.32;;;6.10;99.90;;;;;;5096325;28;20031;-73
2023/12/02 05:39:41;;;;;;;8.15;7.18;;;6.00;99.90;;;;;;5096636;28;20035;-73
2023/12/02 05:42:08;;;;;;;6.80;5.32;;;6.00;99.90;;;;;;5094679;28;20027;-74
2023/12/02 05:44:34;;;;;;;7.50;6.68;;;6.00;99.90;;;;;;5096483;28;20032;-72
2023/12/02 05:47:00;;;;;;;8.43;7.28;;;6.00;99.90;;;;;;5095733;28;20026;-72
2023/12/02 05:49:25;;;;;;;11.00;7.57;;;6.00;99.90;;;;;;5096352;28;20024;-74
2023/12/02 05:51:51;;;;;;;10.10;6.43;;;6.00;99.90;;;;;;5096181;28;20028;-73
2023/12/02 05:54:16;;;;;;;9.25;7.03;;;6.00;99.90;;;;;;5095034;28;20032;-73
2023/12/02 05:56:42;;;;;;;7.35;6.63;;;6.00;99.90;;;;;;5095948;28;20046;-72
2023/12/02 05:59:08;;;;;;;11.43;8.02;;;6.00;99.90;;;;;;5096173;28;20024;-72
2023/12/02 06:01:34;;;;;;;9.63;8.27;;;5.90;99.90;;;;;;5096144;28;20032;-72
2023/12/02 06:04:00;;;;;;;7.13;5.72;;;5.90;99.90;;;;;;5095927;28;20017;-71
2023/12/02 06:06:26;;;;;;;7.68;6.13;;;5.90;99.90;;;;;;5095967;28;20027;-71
2023/12/02 06:08:51;;;;;;;9.20;7.43;;;5.90;99.90;;;;;;5104234;28;20441;-72
2023/12/02 06:11:17;;;;;;;8.77;6.93;;;5.90;99.90;;;;;;5098958;28;20044;-72
2023/12/02 06:13:42;;;;;;;6.13;5.53;;;5.90;99.90;;;;;;5096281;28;20063;-72
2023/12/02 06:16:09;;;;;;;7.45;6.40;;;5.80;99.90;;;;;;5095496;28;20016;-71
2023/12/02 06:18:34;;;;;;;7.82;5.85;;;5.80;99.90;;;;;;5095619;28;20059;-73
2023/12/02 06:21:00;;;;;;;6.88;5.70;;;5.80;99.90;;;;;;5095590;28;20020;-73
2023/12/02 06:23:26;;;;;;;8.73;7.82;;;5.80;99.90;;;;;;5095868;28;20488;-73
2023/12/02 06:25:51;;;;;;;8.70;6.40;;;5.80;99.90;;;;;;5095737;28;20059;-71
2023/12/02 06:28:17;;;;;;;9.90;7.10;;;5.80;99.90;;;;;;5095839;28;20028;-72
2023/12/02 06:30:43;;;;;;;8.43;7.30;;;5.80;99.90;;;;;;5095562;28;20395;-72
2023/12/02 06:33:09;;;;;;;13.63;8.15;;;5.70;99.90;;;;;;5095580;28;20047;-73
2023/12/02 06:35:34;;;;;;;8.45;7.55;;;5.70;99.90;;;;;;5093940;28;20020;-73
2023/12/02 06:38:00;;;;;;;15.75;8.13;;;5.70;99.90;;;;;;5095715;28;20073;-72
2023/12/02 06:40:26;;;;;;;7.55;6.25;;;5.70;99.90;;;;;;5095290;28;20044;-73
2023/12/02 06:42:51;;;;;;;10.77;8.13;;;5.70;99.90;;;;;;5095738;28;20100;-72
2023/12/02 06:45:17;;;;;;;10.13;8.02;;;5.60;99.90;;;;;;5093804;28;20032;-73
2023/12/02 06:47:43;;;;;;;7.65;6.40;;;5.60;99.90;;;;;;5095574;28;20062;-72
2023/12/02 06:50:09;;;;;;;7.50;5.50;;;5.60;99.90;;;;;;5095261;28;20031;-73
2023/12/02 06:52:35;;;;;;;12.88;8.27;;;5.50;99.90;;;;;;5095403;28;20472;-72
2023/12/02 06:55:01;;;;;;;11.15;8.95;;;5.60;99.90;;;;;;5095356;28;20275;-72
2023/12/02 06:57:26;;;;;;;9.73;5.93;;;5.50;99.90;;;;;;5095659;28;20032;-71
2023/12/02 06:59:52;;;;;;;12.10;9.38;;;5.50;99.90;;;;;;5097727;28;20036;-72
2023/12/02 07:02:18;;;;;;;11.25;8.75;;;5.50;99.90;;;;;;5095739;28;20020;-72
2023/12/02 07:04:45;;;;;;;10.20;8.90;;;5.40;99.90;;;;;;5095356;28;20024;-74
2023/12/02 07:07:11;;;;;;;17.33;8.35;;;5.40;99.90;;;;;;5099541;28;20032;-72
2023/12/02 07:09:37;;;;;;;13.55;8.02;;;5.40;99.90;;;;;;5111075;28;20119;-73
2023/12/02 07:12:03;;;;;;;10.48;7.78;;;5.40;99.90;;;;;;5099351;28;20055;-72
2023/12/02 07:14:29;;;;;;;9.80;7.90;;;5.40;99.90;;;;;;5097707;28;20036;-73
2023/12/02 07:16:54;;;;;;;11.82;8.95;;;5.30;99.90;;;;;;5099130;28;20035;-73
2023/12/02 07:19:20;;;;;;;14.57;10.35;;;5.30;99.90;;;;;;5098996;28;20800;-72
2023/12/02 07:21:46;;;;;;;10.15;7.55;;;5.30;99.90;;;;;;5097256;28;20063;-74
2023/12/02 07:24:11;;;;;;;12.02;9.68;;;5.20;99.90;;;;;;5099211;28;20369;-75
2023/12/02 07:26:37;;;;;;;18.08;11.77;;;5.10;99.90;;;;;;5098204;28;20028;-76
2023/12/02 07:29:03;;;;;;;12.27;8.60;;;5.00;99.90;;;;;;5098851;28;20036;-76
2023/12/02 07:31:29;;;;;;;11.55;10.05;;;5.00;99.90;;;;;;5099065;28;20028;-75
2023/12/02 07:33:54;;;;;;;16.00;9.65;;;4.90;99.90;;;;;;5098685;28;20508;-77
2023/12/02 07:36:20;;;;;;;16.55;11.77;;;4.80;99.90;;;;;;5099001;28;20031;-74
2023/12/02 07:38:46;;;;;;;12.65;11.02;;;4.80;99.90;;;;;;5103450;28;20519;-76
2023/12/02 07:41:12;;;;;;;10.13;8.10;;;4.70;99.90;;;;;;5094859;28;20038;-78
2023/12/02 07:43:37;;;;;;;17.23;12.48;;;4.70;99.90;;;;;;5100174;28;20091;-75
2023/12/02 07:46:03;;;;;;;16.23;13.32;;;4.70;99.90;;;;;;5097750;28;20027;-75
2023/12/02 07:48:29;;;;;;;17.67;12.85;;;4.70;99.90;;;;;;5097064;28;20020;-79
2023/12/02 07:50:54;;;;;;;14.55;11.40;;;4.70;99.90;;;;;;5097850;28;20031;-80
2023/12/02 07:53:20;;;;;;;14.10;11.32;;;4.60;99.90;;;;;;5097026;28;20450;-75
2023/12/02 07:55:46;;;;;;;14.18;11.32;;;4.70;99.90;;;;;;5097511;28;20115;-76
2023/12/02 07:58:11;;;;;;;16.65;12.18;;;4.70;99.90;;;;;;5097612;28;20135;-78
2023/12/02 08:00:37;;;;;;;12.57;10.52;;;4.70;99.90;;;;;;5097474;28;20396;-77
2023/12/02 08:03:03;;;;;;;19.40;13.80;;;4.70;99.90;;;;;;5096277;28;20099;-76
2023/12/02 08:05:28;;;;;;;9.82;8.55;;;4.70;99.90;;;;;;5097120;28;20031;-74
2023/12/02 08:07:54;;;;;;;13.20;10.50;;;4.70;99.90;;;;;;5097562;28;20024;-77
2023/12/02 08:10:20;;;;;;;13.07;11.48;;;4.70;99.90;;;;;;5096531;28;20081;-76
2023/12/02 08:12:45;;;;;;;14.27;11.43;;;4.70;99.90;;;;;;5093746;28;20032;-75
2023/12/02 08:15:11;;;;;;;17.70;12.18;;;4.70;99.90;;;;;;5097209;28;20023;-75
2023/12/02 08:17:37;;;;;;;17.25;12.50;;;4.70;99.90;;;;;;5095881;28;20020;-75
2023/12/02 08:20:05;;;;;;;21.70;12.95;;;4.70;99.90;;;;;;5097696;28;20032;-75
2023/12/02 08:22:31;;;;;;;15.18;11.90;;;4.70;99.90;;;;;;5096211;28;20020;-75
2023/12/02 08:24:57;;;;;;;15.45;11.50;;;4.80;99.90;;;;;;5093340;28;20031;-75
2023/12/02 08:27:23;;;;;;;13.73;10.20;;;4.80;99.90;;;;;;5097044;28;20107;-75
2023/12/02 08:29:49;;;;;;;19.70;11.55;;;4.80;99.90;;;;;;5091997;28;20108;-76
2023/12/02 08:32:14;;;;;;;13.60;10.75;;;4.80;99.90;;;;;;5095057;28;20059;-78
2023/12/02 08:34:40;;;;;;;16.08;12.07;;;4.80;99.90;;;;;;5095972;28;20104;-75
2023/12/02 08:37:06;;;;;;;14.43;11.00;;;4.80;99.90;;;;;;5096475;28;20034;-76
2023/12/02 08:39:32;;;;;;;13.90;10.30;;;4.80;99.90;;;;;;5096512;28;20078;-77
2023/12/02 08:41:58;;;;;;;12.02;10.35;;;4.80;99.90;;;;;;5095766;28;20511;-75
2023/12/02 08:44:24;;;;;;;11.40;9.93;;;4.70;99.90;;;;;;5095240;28;20012;-76
2023/12/02 08:46:52;;;;;;;11.85;10.20;;;4.70;99.90;;;;;;5096541;28;20060;-75
2023/12/02 08:49:18;;;;;;;14.32;11.40;;;4.60;99.90;;;;;;5096697;28;20063;-75
2023/12/02 08:51:44;;;;;;;13.43;9.95;;;4.60;99.90;;;;;;5095472;28;20516;-76
2023/12/02 08:54:09;;;;;;;15.40;11.70;;;4.60;99.90;;;;;;5095397;28;20016;-76
2023/12/02 08:56:35;;;;;;;13.40;10.20;;;4.60;99.90;;;;;;5095961;28;20068;-80
2023/12/02 08:59:01;;;;;;;9.07;7.90;;;4.60;99.90;;;;;;5096910;28;20020;-76
2023/12/02 09:01:27;;;;;;;11.00;9.45;;;4.60;99.90;;;;;;5095773;28;20521;-79
2023/12/02 09:03:52;;;;;;;15.45;10.88;;;4.60;99.90;;;;;;5094243;28;20396;-77
2023/12/02 09:06:18;;;;;;;17.05;14.65;;;4.60;99.90;;;;;;5095835;28;20070;-77
2023/12/02 09:08:44;;;;;;;12.70;9.73;;;4.60;99.90;;;;;;5096663;28;20024;-77
2023/12/02 09:11:10;;;;;;;14.15;11.00;;;4.60;99.90;;;;;;5095118;28;20052;-76
2023/12/02 09:13:39;;;;;;;14.77;11.68;;;4.70;99.90;;;;;;5090250;28;20023;-77
2023/12/02 09:16:05;;;;;;;8.57;7.68;;;4.60;99.90;;;;;;5095984;28;20024;-76
2023/12/02 09:18:35;;;;;;;12.55;10.75;;;4.70;99.90;;;;;;5094489;28;20085;-77
2023/12/02 09:21:02;;;;;;;12.63;10.55;;;4.70;99.90;;;;;;5095557;28;20039;-76
2023/12/02 09:23:28;;;;;;;17.00;11.90;;;4.70;99.90;;;;;;5094395;28;20028;-76
2023/12/02 09:26:03;;;;;;;15.63;10.88;;;4.70;99.90;;;;;;5094748;28;20070;-76
2023/12/02 09:28:29;;;;;;;13.20;10.90;;;4.70;99.90;;;;;;5091871;28;20077;-76
2023/12/02 09:31:06;;;;;;;10.85;8.57;;;4.80;99.90;;;;;;5094667;28;20033;-77
2023/12/02 09:33:32;;;;;;;14.90;11.70;;;4.80;99.90;;;;;;5092628;28;20475;-76
2023/12/02 09:36:02;;;;;;;13.88;11.85;;;4.80;99.90;;;;;;5095063;28;20032;-77
2023/12/02 09:38:28;;;;;;;13.60;11.00;;;4.90;99.90;;;;;;5091912;28;20103;-76
2023/12/02 09:41:00;;;;;;;18.80;12.65;;;4.90;99.90;;;;;;5093676;28;20070;-78
2023/12/02 09:43:45;;;;;;;14.75;11.23;;;4.90;99.90;;;;;;5094905;28;20028;-77
2023/12/02 09:46:13;;;;;;;14.98;11.93;;;4.80;99.90;;;;;;5094072;28;20028;-78
2023/12/02 09:49:11;;;;;;;14.88;11.48;;;4.90;99.90;;;;;;5093515;28;20039;-77
2023/12/02 09:52:14;;;;;;;14.52;11.30;;;4.90;99.90;;;;;;5083885;28;20084;-76
2023/12/02 09:55:12;;;;;;;13.85;10.68;;;4.90;99.90;;;;;;5181515;27;20384;-79
2023/12/02 09:57:40;;;;;;;11.88;10.45;;;4.90;99.90;;;;;;5171878;27;20098;-78
2023/12/02 10:00:12;;;;;;;14.35;10.85;;;4.90;99.90;;;;;;5174525;27;20082;-80
2023/12/02 10:02:54;;;;;;;14.95;10.93;;;4.80;99.90;;;;;;5172869;27;20153;-80
2023/12/02 10:05:21;;;;;;;13.98;10.45;;;4.90;99.90;;;;;;5173841;27;20509;-79
2023/12/02 10:08:05;;;;;;;14.20;11.25;;;5.00;99.90;;;;;;5155536;27;20018;-76
2023/12/02 10:10:52;;;;;;;14.43;11.65;;;5.00;99.90;;;;;;5171097;27;20019;-76
2023/12/02 10:13:48;;;;;;;14.48;11.63;;;5.20;99.90;;;;;;5173554;27;20022;-76
2023/12/02 10:16:18;;;;;;;10.68;9.20;;;5.20;99.90;;;;;;5172267;27;20031;-76
2023/12/02 10:18:57;;;;;;;11.63;10.25;;;5.20;99.90;;;;;;5173007;27;20101;-78
2023/12/02 10:21:25;;;;;;;11.38;9.63;;;5.20;99.90;;;;;;5173466;27;20075;-77
2023/12/02 10:24:01;;;;;;;14.02;9.90;;;5.30;99.90;;;;;;5173739;27;20026;-77
2023/12/02 10:26:42;;;;;;;13.68;10.52;;;5.30;99.90;;;;;;5172821;27;20049;-79
2023/12/02 10:29:29;;;;;;;13.38;11.07;;;5.50;99.90;;;;;;5147031;27;20059;-78
2023/12/02 10:32:30;;;;;;;13.07;10.90;;;5.70;99.90;;;;;;5153743;27;20530;-77
2023/12/02 10:35:08;;;;;;;15.90;12.73;;;5.70;99.90;;;;;;5167025;27;20046;-77
2023/12/02 10:37:39;;;;;;;14.07;11.77;;;5.50;99.90;;;;;;5170176;27;20478;-78
2023/12/02 10:40:10;;;;;;;16.05;12.93;;;5.30;99.90;;;;;;5154276;27;20034;-78
2023/12/02 10:43:26;;;;;;;14.80;10.63;;;5.20;99.90;;;;;;5172408;27;20522;-78
2023/12/02 10:45:52;;;;;;;13.80;11.43;;;5.10;99.90;;;;;;5065598;28;20028;-77
2023/12/02 10:48:19;;;;;;;15.90;11.93;;;5.10;99.90;;;;;;5050956;28;20032;-79
2023/12/02 10:50:45;;;;;;;16.83;11.05;;;5.10;99.90;;;;;;5126103;27;20759;-77
2023/12/02 10:53:14;;;;;;;13.10;10.35;;;5.10;99.90;;;;;;5172980;27;20048;-77
2023/12/02 10:55:45;;;;;;;13.93;8.75;;;5.20;99.90;;;;;;5171371;27;20018;-76
2023/12/02 10:58:12;;;;;;;13.55;11.32;;;5.20;99.90;;;;;;5152866;27;20456;-76
2023/12/02 11:00:40;;;;;;;11.02;7.80;;;5.20;99.90;;;;;;5172835;27;20018;-76
2023/12/02 11:03:28;;;;;;;8.20;6.75;;;5.30;99.90;;;;;;5172959;27;20022;-76
2023/12/02 11:06:04;;;;;;;12.68;10.43;;;5.30;99.90;;;;;;5158320;27;20038;-79
2023/12/02 11:09:11;;;;;;;11.57;10.38;;;5.40;99.90;;;;;;5118223;27;20057;-78
2023/12/02 11:11:46;;;;;;;13.63;11.07;;;5.50;99.90;;;;;;5117556;27;20035;-76
2023/12/02 11:14:18;;;;;;;13.75;10.70;;;5.70;99.90;;;;;;5137834;27;20031;-76
2023/12/02 11:17:31;;;;;;;13.35;10.70;;;5.90;99.90;;;;;;5138124;27;20031;-76
2023/12/02 11:20:20;;;;;;;18.55;10.10;;;6.10;99.90;;;;;;5080725;27;20027;-76
2023/12/02 11:23:07;;;;;;;17.80;11.68;;;6.40;99.90;;;;;;5133313;27;20499;-77
2023/12/02 11:25:45;;;;;;;12.75;9.55;;;6.60;99.90;;;;;;5133396;27;20027;-77
2023/12/02 11:28:31;;;;;;;14.45;10.93;;;6.60;99.90;;;;;;5114569;27;20467;-76
2023/12/02 11:31:32;;;;;;;14.20;10.55;;;6.60;99.90;;;;;;5137917;27;20023;-75
2023/12/02 11:34:04;;;;;;;12.85;10.18;;;6.70;99.90;;;;;;5122896;27;20051;-77
2023/12/02 11:36:45;;;;;;;8.10;6.95;;;6.70;99.90;;;;;;5136856;27;20015;-78
2023/12/02 11:39:29;;;;;;;14.18;9.15;;;6.70;99.90;;;;;;5135101;27;20027;-75
2023/12/02 11:41:57;;;;;;;99.05;33.83;;;6.70;99.90;;;;;;5137927;27;20035;-77
2023/12/02 11:44:43;;;;;;;12.00;9.63;;;6.80;99.90;;;;;;5137354;27;20027;-75
2023/12/02 11:47:42;;;;;;;10.52;8.55;;;6.80;99.90;;;;;;5137414;27;20057;-76
2023/12/02 11:50:27;;;;;;;14.20;9.38;;;6.80;99.90;;;;;;5135004;27;20039;-76
2023/12/02 11:53:24;;;;;;;9.05;7.70;;;6.80;99.90;;;;;;5104366;27;20039;-76
2023/12/02 11:56:07;;;;;;;11.32;9.02;;;6.80;99.90;;;;;;5116692;27;20164;-76
2023/12/02 11:58:55;;;;;;;64.07;24.33;;;6.80;99.90;;;;;;5134002;27;20095;-78
2023/12/02 12:01:41;;;;;;;12.63;10.10;;;6.70;99.90;;;;;;5116109;27;20035;-77
2023/12/02 12:04:51;;;;;;;10.93;8.07;;;6.60;99.90;;;;;;5133573;27;20141;-76
2023/12/02 12:07:51;;;;;;;13.65;8.13;;;6.60;99.90;;;;;;5136401;27;20027;-76
2023/12/02 12:10:46;;;;;;;11.25;8.75;;;6.60;99.90;;;;;;5136757;27;20380;-77
2023/12/02 12:13:18;;;;;;;10.20;7.93;;;6.50;99.90;;;;;;5116827;27;20134;-77
2023/12/02 12:15:44;;;;;;;11.35;9.10;;;6.50;99.90;;;;;;5136245;27;20023;-78
2023/12/02 12:18:10;;;;;;;10.50;8.27;;;6.50;99.90;;;;;;5136147;27;20071;-78
2023/12/02 12:20:36;;;;;;;11.65;8.98;;;6.60;99.90;;;;;;5136640;27;20076;-77
2023/12/02 12:23:02;;;;;;;9.57;8.40;;;6.70;99.90;;;;;;5136892;27;20035;-78
2023/12/02 12:25:29;;;;;;;10.48;8.68;;;6.80;99.90;;;;;;5135953;27;20019;-78
2023/12/02 12:28:05;;;;;;;20.10;12.32;;;6.90;99.90;;;;;;5136765;27;20060;-77
2023/12/02 12:30:47;;;;;;;9.50;8.18;;;6.80;99.90;;;;;;5136582;27;20391;-77
2023/12/02 12:33:14;;;;;;;10.40;7.97;;;6.80;99.90;;;;;;5133648;27;20027;-77
2023/12/02 12:35:41;;;;;;;10.98;9.05;;;6.70;99.90;;;;;;5136863;27;20084;-77
2023/12/02 12:38:09;;;;;;;10.63;8.40;;;6.70;99.90;;;;;;5136772;27;20030;-76
2023/12/02 12:40:44;;;;;;;10.32;8.63;;;6.80;99.90;;;;;;5132781;27;20016;-76
2023/12/02 12:43:14;;;;;;;12.32;8.77;;;6.80;99.90;;;;;;5134337;27;20027;-76
2023/12/02 12:45:40;;;;;;;9.15;7.70;;;6.80;99.90;;;;;;5116958;27;20031;-77
2023/12/02 12:48:06;;;;;;;12.70;9.77;;;6.90;99.90;;;;;;5136046;27;20027;-78
2023/12/02 12:50:32;;;;;;;10.63;8.88;;;6.90;99.90;;;;;;5132439;27;20074;-76
2023/12/02 12:53:09;;;;;;;10.82;9.20;;;6.90;99.90;;;;;;5128592;27;20070;-78
2023/12/02 12:55:42;;;;;;;15.60;8.60;;;6.90;99.90;;;;;;5132228;27;20023;-80
2023/12/02 12:58:13;;;;;;;11.95;9.63;;;6.90;99.90;;;;;;5135766;27;20043;-80